createdAt,value
2018-12-01T00:00:17.312Z,2.32
2018-12-01T00:02:45.713Z,2.31
2018-12-01T00:05:14.113Z,2.31
2018-12-01T00:07:42.576Z,2.31
2018-12-01T00:10:10.980Z,2.30
2018-12-01T00:12:39.348Z,2.29
2018-12-01T00:15:09.872Z,2.28
2018-12-01T00:17:38.244Z,2.26
2018-12-01T00:20:09.696Z,2.26
2018-12-01T00:22:38.076Z,2.25
2018-12-01T00:25:07.704Z,2.25
2018-12-01T00:27:36.164Z,2.24
2018-12-01T00:30:13.408Z,2.24
2018-12-01T00:32:42.239Z,2.25
2018-12-01T00:35:11.573Z,2.26
2018-12-01T00:37:40.066Z,2.24
2018-12-01T00:40:18.681Z,2.24
2018-12-01T00:42:47.075Z,2.24
2018-12-01T00:45:16.467Z,2.25
2018-12-01T00:47:45.848Z,2.22
2018-12-01T00:50:16.209Z,2.22
2018-12-01T00:52:44.829Z,2.21
2018-12-01T00:55:14.051Z,2.22
2018-12-01T00:57:42.444Z,2.20
2018-12-01T01:00:14.202Z,2.21
2018-12-01T01:02:42.692Z,2.22
2018-12-01T01:05:11.141Z,2.22
2018-12-01T01:07:39.536Z,2.24
2018-12-01T01:10:09.850Z,2.24
2018-12-01T01:12:38.253Z,2.27
2018-12-01T01:15:07.839Z,2.29
2018-12-01T01:17:36.644Z,2.30
2018-12-01T01:20:09.021Z,2.31
2018-12-01T01:22:37.509Z,2.32
2018-12-01T01:25:06.688Z,2.32
2018-12-01T01:27:35.080Z,2.32
2018-12-01T01:30:05.192Z,2.31
2018-12-01T01:32:33.696Z,2.31
2018-12-01T01:35:02.555Z,2.30
2018-12-01T01:37:30.960Z,2.30
2018-12-01T01:39:59.412Z,2.29
2018-12-01T01:42:27.816Z,2.29
2018-12-01T01:44:56.285Z,2.29
2018-12-01T01:47:24.677Z,2.29
2018-12-01T01:49:53.041Z,2.27
2018-12-01T01:52:21.440Z,2.28
2018-12-01T01:54:49.809Z,2.27
2018-12-01T01:57:18.192Z,2.28
2018-12-01T01:59:46.548Z,2.28
2018-12-01T02:02:14.960Z,2.29
2018-12-01T02:04:43.331Z,2.28
2018-12-01T02:07:11.712Z,2.30
2018-12-01T02:09:40.072Z,2.31
2018-12-01T02:12:08.481Z,2.34
2018-12-01T02:14:36.848Z,2.34
2018-12-01T02:17:05.340Z,2.36
2018-12-01T02:19:33.793Z,2.37
2018-12-01T02:22:02.196Z,2.37
2018-12-01T02:24:30.565Z,2.39
2018-12-01T02:26:58.963Z,2.41
2018-12-01T02:29:27.417Z,2.43
2018-12-01T02:31:55.968Z,2.44
2018-12-01T02:34:24.360Z,2.45
2018-12-01T02:36:52.789Z,2.45
2018-12-01T02:39:21.253Z,2.45
2018-12-01T02:41:49.639Z,2.44
2018-12-01T02:44:29.149Z,2.44
2018-12-01T02:47:10.046Z,2.45
2018-12-01T02:49:38.530Z,2.45
2018-12-01T02:52:07.500Z,2.44
2018-12-01T02:54:35.900Z,2.45
2018-12-01T02:57:04.309Z,2.44
2018-12-01T02:59:32.756Z,2.43
2018-12-01T03:02:01.157Z,2.42
2018-12-01T03:04:29.624Z,2.42
2018-12-01T03:06:58.001Z,2.43
2018-12-01T03:09:26.396Z,2.45
2018-12-01T03:11:54.869Z,2.45
2018-12-01T03:14:23.272Z,2.47
2018-12-01T03:16:51.796Z,2.47
2018-12-01T03:19:20.237Z,2.46
2018-12-01T03:21:48.692Z,2.47
2018-12-01T03:24:17.103Z,2.46
2018-12-01T03:26:45.484Z,2.46
2018-12-01T03:29:13.875Z,2.43
2018-12-01T03:31:42.270Z,2.43
2018-12-01T03:34:10.721Z,2.42
2018-12-01T03:36:39.176Z,2.41
2018-12-01T03:39:09.476Z,2.40
2018-12-01T03:41:38.223Z,2.41
2018-12-01T03:44:06.697Z,2.40
2018-12-01T03:46:35.153Z,2.40
2018-12-01T03:49:03.553Z,2.41
2018-12-01T03:51:32.041Z,2.40
2018-12-01T03:54:00.521Z,2.41
2018-12-01T03:56:28.976Z,2.38
2018-12-01T03:58:57.380Z,2.39
2018-12-01T04:01:25.841Z,2.40
2018-12-01T04:03:54.254Z,2.40
2018-12-01T04:06:22.634Z,2.40
2018-12-01T04:08:51.024Z,2.39
2018-12-01T04:11:19.397Z,2.40
2018-12-01T04:13:47.861Z,2.41
2018-12-01T04:16:16.322Z,2.41
2018-12-01T04:18:44.733Z,2.40
2018-12-01T04:21:13.108Z,2.42
2018-12-01T04:23:41.588Z,2.42
2018-12-01T04:26:10.045Z,2.42
2018-12-01T04:28:38.440Z,2.43
2018-12-01T04:31:06.841Z,2.45
2018-12-01T04:33:35.237Z,2.47
2018-12-01T04:36:03.664Z,2.50
2018-12-01T04:38:32.068Z,2.50
2018-12-01T04:41:00.436Z,2.51
2018-12-01T04:43:28.945Z,2.51
2018-12-01T04:45:57.429Z,2.53
2018-12-01T04:48:25.827Z,2.54
2018-12-01T04:50:54.257Z,2.55
2018-12-01T04:53:22.658Z,2.56
2018-12-01T04:55:51.344Z,2.59
2018-12-01T04:58:19.825Z,2.62
2018-12-01T05:00:48.280Z,2.63
2018-12-01T05:03:16.701Z,2.62
2018-12-01T05:05:45.069Z,2.65
2018-12-01T05:08:13.432Z,2.63
2018-12-01T05:10:41.829Z,2.62
2018-12-01T05:13:10.211Z,2.62
2018-12-01T05:15:38.612Z,2.60
2018-12-01T05:18:07.557Z,2.60
2018-12-01T05:20:35.953Z,2.62
2018-12-01T05:23:04.432Z,2.63
2018-12-01T05:25:32.920Z,2.65
2018-12-01T05:28:01.314Z,2.64
2018-12-01T05:30:29.840Z,2.65
2018-12-01T05:32:58.249Z,2.65
2018-12-01T05:35:26.640Z,2.66
2018-12-01T05:37:56.245Z,2.67
2018-12-01T05:40:24.636Z,2.68
2018-12-01T05:42:53.089Z,2.71
2018-12-01T05:45:22.247Z,2.73
2018-12-01T05:47:51.184Z,2.76
2018-12-01T05:50:23.300Z,2.80
2018-12-01T05:52:52.648Z,2.81
2018-12-01T05:55:21.058Z,2.84
2018-12-01T05:57:49.527Z,2.84
2018-12-01T06:00:18.085Z,2.84
2018-12-01T06:02:46.483Z,2.86
2018-12-01T06:05:14.877Z,2.86
2018-12-01T06:07:43.625Z,2.87
2018-12-01T06:10:13.972Z,2.88
2018-12-01T06:12:42.461Z,2.89
2018-12-01T06:15:12.705Z,2.90
2018-12-01T06:17:41.168Z,2.93
2018-12-01T06:20:10.899Z,2.94
2018-12-01T06:22:39.354Z,2.95
2018-12-01T06:25:11.146Z,2.96
2018-12-01T06:27:39.598Z,2.98
2018-12-01T06:30:12.325Z,2.99
2018-12-01T06:32:40.776Z,2.98
2018-12-01T06:35:09.269Z,2.99
2018-12-01T06:37:37.712Z,2.99
2018-12-01T06:40:10.338Z,2.96
2018-12-01T06:42:38.783Z,2.96
2018-12-01T06:45:09.158Z,2.99
2018-12-01T06:47:37.592Z,2.99
2018-12-01T06:50:08.268Z,2.99
2018-12-01T06:52:36.708Z,2.98
2018-12-01T06:55:05.288Z,3.00
2018-12-01T06:57:33.689Z,3.03
2018-12-01T07:00:02.169Z,3.05
2018-12-01T07:02:30.580Z,3.06
2018-12-01T07:04:59.054Z,3.08
2018-12-01T07:07:27.952Z,3.12
2018-12-01T07:09:56.384Z,3.13
2018-12-01T07:12:24.795Z,3.15
2018-12-01T07:14:53.252Z,3.16
2018-12-01T07:17:21.652Z,3.17
2018-12-01T07:19:50.109Z,3.18
2018-12-01T07:22:18.509Z,3.21
2018-12-01T07:24:46.977Z,3.24
2018-12-01T07:27:15.388Z,3.27
2018-12-01T07:29:43.833Z,3.26
2018-12-01T07:32:12.337Z,3.27
2018-12-01T07:34:40.797Z,3.26
2018-12-01T07:37:09.197Z,3.28
2018-12-01T07:39:37.677Z,3.29
2018-12-01T07:42:06.236Z,3.33
2018-12-01T07:44:34.625Z,3.36
2018-12-01T07:47:03.029Z,3.38
2018-12-01T07:49:31.412Z,3.41
2018-12-01T07:51:59.896Z,3.42
2018-12-01T07:54:28.348Z,3.46
2018-12-01T07:56:56.753Z,3.52
2018-12-01T07:59:25.135Z,3.57
2018-12-01T08:01:53.816Z,3.64
2018-12-01T08:04:22.280Z,3.67
2018-12-01T08:06:51.396Z,3.75
2018-12-01T08:09:19.853Z,3.78
2018-12-01T08:11:48.252Z,3.86
2018-12-01T08:14:16.622Z,3.90
2018-12-01T08:16:45.022Z,3.92
2018-12-01T08:19:13.482Z,3.93
2018-12-01T08:21:41.881Z,3.99
2018-12-01T08:24:10.332Z,4.01
2018-12-01T08:26:38.747Z,4.03
2018-12-01T08:29:07.239Z,4.05
2018-12-01T08:31:35.697Z,4.06
2018-12-01T08:34:04.161Z,4.08
2018-12-01T08:36:32.557Z,4.09
2018-12-01T08:39:01.041Z,4.09
2018-12-01T08:41:29.505Z,4.14
2018-12-01T08:43:57.903Z,4.17
2018-12-01T08:46:26.368Z,4.19
2018-12-01T08:48:54.777Z,4.23
2018-12-01T08:51:23.233Z,4.24
2018-12-01T08:53:51.633Z,4.29
2018-12-01T08:56:20.088Z,4.32
2018-12-01T08:58:48.496Z,4.36
2018-12-01T09:01:16.878Z,4.40
2018-12-01T09:03:45.286Z,4.43
2018-12-01T09:06:13.712Z,4.43
2018-12-01T09:08:42.122Z,4.46
2018-12-01T09:11:10.577Z,4.50
2018-12-01T09:13:38.981Z,4.52
2018-12-01T09:16:07.858Z,4.59
2018-12-01T09:18:36.358Z,4.62
2018-12-01T09:21:05.241Z,4.67
2018-12-01T09:23:33.731Z,4.70
2018-12-01T09:26:02.104Z,4.75
2018-12-01T09:28:30.591Z,4.80
2018-12-01T09:30:59.047Z,4.85
2018-12-01T09:33:27.455Z,4.87
2018-12-01T09:35:57.764Z,4.90
2018-12-01T09:38:26.263Z,4.92
2018-12-01T09:40:54.720Z,4.93
2018-12-01T09:43:23.232Z,4.92
2018-12-01T09:45:51.677Z,4.96
2018-12-01T09:48:20.085Z,4.99
2018-12-01T09:50:48.540Z,5.02
2018-12-01T09:53:16.944Z,5.08
2018-12-01T09:55:45.330Z,5.12
2018-12-01T09:58:14.029Z,5.16
2018-12-01T10:00:42.404Z,5.23
2018-12-01T10:03:10.871Z,5.31
2018-12-01T10:05:39.366Z,5.36
2018-12-01T10:08:08.079Z,5.45
2018-12-01T10:10:36.580Z,5.49
2018-12-01T10:13:05.128Z,5.55
2018-12-01T10:15:35.716Z,5.61
2018-12-01T10:18:04.224Z,5.65
2018-12-01T10:20:33.796Z,5.66
2018-12-01T10:23:03.860Z,5.69
2018-12-01T10:25:32.234Z,5.72
2018-12-01T10:28:00.632Z,5.72
2018-12-01T10:30:29.065Z,5.75
2018-12-01T10:32:57.472Z,5.78
2018-12-01T10:35:26.648Z,5.82
2018-12-01T10:38:02.518Z,5.89
2018-12-01T10:40:31.016Z,5.93
2018-12-01T10:42:59.410Z,5.98
2018-12-01T10:45:27.845Z,6.02
2018-12-01T10:47:56.232Z,6.09
2018-12-01T10:50:24.929Z,6.12
2018-12-01T10:52:54.323Z,6.17
2018-12-01T10:55:28.156Z,6.22
2018-12-01T10:58:01.927Z,6.27
2018-12-01T11:00:36.086Z,6.31
2018-12-01T11:03:04.568Z,6.34
2018-12-01T11:05:33.740Z,6.38
2018-12-01T11:08:02.234Z,6.41
2018-12-01T11:10:30.712Z,6.44
2018-12-01T11:12:59.176Z,6.51
2018-12-01T11:15:27.677Z,6.57
2018-12-01T11:17:56.128Z,6.59
2018-12-01T11:20:24.536Z,6.61
2018-12-01T11:22:57.766Z,6.60
2018-12-01T11:25:21.960Z,6.58
2018-12-01T11:27:49.861Z,6.55
2018-12-01T11:30:19.085Z,6.53
2018-12-01T11:32:47.953Z,6.51
2018-12-01T11:35:16.349Z,6.53
2018-12-01T11:37:45.217Z,6.53
2018-12-01T11:40:15.365Z,6.53
2018-12-01T11:42:43.509Z,6.54
2018-12-01T11:45:13.108Z,6.58
2018-12-01T11:47:41.485Z,6.61
2018-12-01T11:50:11.345Z,6.64
2018-12-01T11:52:39.802Z,6.64
2018-12-01T11:55:24.393Z,6.65
2018-12-01T11:57:53.641Z,6.65
2018-12-01T12:00:26.869Z,6.64
2018-12-01T12:02:55.750Z,6.64
2018-12-01T12:05:24.249Z,6.64
2018-12-01T12:08:23.993Z,6.61
2018-12-01T12:10:52.582Z,6.57
2018-12-01T12:13:22.141Z,6.57
2018-12-01T12:15:50.651Z,6.55
2018-12-01T12:18:19.069Z,6.55
2018-12-01T12:20:47.506Z,6.55
2018-12-01T12:23:16.822Z,6.58
2018-12-01T12:25:44.377Z,6.60
2018-12-01T12:28:12.761Z,6.63
2018-12-01T12:30:41.224Z,6.66
2018-12-01T12:33:09.674Z,6.67
2018-12-01T12:35:38.085Z,6.68
2018-12-01T12:38:06.549Z,6.71
2018-12-01T12:40:34.968Z,6.73
2018-12-01T12:43:03.337Z,6.74
2018-12-01T12:45:31.806Z,6.77
2018-12-01T12:48:00.260Z,6.80
2018-12-01T12:50:28.664Z,6.86
2018-12-01T12:52:57.228Z,6.90
2018-12-01T12:55:26.453Z,6.99
2018-12-01T12:57:54.912Z,7.05
2018-12-01T13:00:24.367Z,7.06
2018-12-01T13:02:55.232Z,7.10
2018-12-01T13:05:25.922Z,7.14
2018-12-01T13:07:54.293Z,7.19
2018-12-01T13:10:23.806Z,7.20
2018-12-01T13:12:52.261Z,7.19
2018-12-01T13:15:20.633Z,7.19
2018-12-01T13:17:49.036Z,7.19
2018-12-01T13:20:19.340Z,7.19
2018-12-01T13:22:48.972Z,7.18
2018-12-01T13:25:17.532Z,7.21
2018-12-01T13:27:48.146Z,7.22
2018-12-01T13:30:18.076Z,7.20
2018-12-01T13:32:46.485Z,7.18
2018-12-01T13:35:14.936Z,7.17
2018-12-01T13:37:44.084Z,7.15
2018-12-01T13:40:13.545Z,7.14
2018-12-01T13:42:42.457Z,7.15
2018-12-01T13:45:14.789Z,7.16
2018-12-01T13:47:43.245Z,7.17
2018-12-01T13:50:13.924Z,7.18
2018-12-01T13:52:43.248Z,7.20
2018-12-01T13:55:11.713Z,7.20
2018-12-01T13:57:40.217Z,7.20
2018-12-01T14:00:11.950Z,7.21
2018-12-01T14:02:40.358Z,7.21
2018-12-01T14:05:10.216Z,7.21
2018-12-01T14:07:38.631Z,7.20
2018-12-01T14:10:15.744Z,7.21
2018-12-01T14:12:45.236Z,7.20
2018-12-01T14:15:18.608Z,7.20
2018-12-01T14:17:47.536Z,7.18
2018-12-01T14:20:16.704Z,7.15
2018-12-01T14:22:46.121Z,7.12
2018-12-01T14:25:15.603Z,7.06
2018-12-01T14:27:47.383Z,7.00
2018-12-01T14:30:16.774Z,6.91
2018-12-01T14:32:45.800Z,6.80
2018-12-01T14:35:19.258Z,6.68
2018-12-01T14:37:49.412Z,6.56
2018-12-01T14:40:17.864Z,6.42
2018-12-01T14:42:46.293Z,6.31
2018-12-01T14:45:15.961Z,6.20
2018-12-01T14:47:44.348Z,6.10
2018-12-01T14:50:15.592Z,5.99
2018-12-01T14:52:44.691Z,5.90
2018-12-01T14:55:15.047Z,5.82
2018-12-01T14:57:43.532Z,5.74
2018-12-01T15:00:13.456Z,5.65
2018-12-01T15:02:41.901Z,5.55
2018-12-01T15:05:10.329Z,5.49
2018-12-01T15:07:38.778Z,5.44
2018-12-01T15:10:10.760Z,5.37
2018-12-01T15:12:39.130Z,5.33
2018-12-01T15:15:09.145Z,5.32
2018-12-01T15:17:37.589Z,5.33
2018-12-01T15:20:23.765Z,5.35
2018-12-01T15:22:53.309Z,5.37
2018-12-01T15:25:23.536Z,5.36
2018-12-01T15:27:52.000Z,5.46
2018-12-01T15:30:22.365Z,5.58
2018-12-01T15:32:54.572Z,5.67
2018-12-01T15:35:22.959Z,5.78
2018-12-01T15:37:51.453Z,5.85
2018-12-01T15:40:20.246Z,5.87
2018-12-01T15:42:48.632Z,5.89
2018-12-01T15:45:18.273Z,5.90
2018-12-01T15:47:46.717Z,5.88
2018-12-01T15:50:20.850Z,5.87
2018-12-01T15:52:51.042Z,5.83
2018-12-01T15:55:19.689Z,5.82
2018-12-01T15:57:48.223Z,5.81
2018-12-01T16:00:18.680Z,5.81
2018-12-01T16:02:47.137Z,5.79
2018-12-01T16:05:16.493Z,5.80
2018-12-01T16:07:44.951Z,5.78
2018-12-01T16:10:15.369Z,5.75
2018-12-01T16:12:44.335Z,5.71
2018-12-01T16:15:15.325Z,5.67
2018-12-01T16:17:43.692Z,5.65
2018-12-01T16:20:14.120Z,5.59
2018-12-01T16:22:42.571Z,5.61
2018-12-01T16:25:12.581Z,5.58
2018-12-01T16:27:41.189Z,5.56
2018-12-01T16:30:14.368Z,5.56
2018-12-01T16:32:42.788Z,5.56
2018-12-01T16:35:11.225Z,5.57
2018-12-01T16:37:39.625Z,5.58
2018-12-01T16:40:11.655Z,5.59
2018-12-01T16:42:40.080Z,5.62
2018-12-01T16:45:10.780Z,5.65
2018-12-01T16:47:39.292Z,5.67
2018-12-01T16:50:10.513Z,5.70
2018-12-01T16:52:39.020Z,5.74
2018-12-01T16:55:12.272Z,5.77
2018-12-01T16:57:40.699Z,5.80
2018-12-01T17:00:13.556Z,5.83
2018-12-01T17:02:42.088Z,5.87
2018-12-01T17:05:11.945Z,5.89
2018-12-01T17:07:40.348Z,5.92
2018-12-01T17:10:23.673Z,5.94
2018-12-01T17:12:54.307Z,5.96
2018-12-01T17:15:22.894Z,5.97
2018-12-01T17:17:51.299Z,5.99
2018-12-01T17:20:20.048Z,6.01
2018-12-01T17:22:52.859Z,6.01
2018-12-01T17:25:21.317Z,6.02
2018-12-01T17:27:50.782Z,6.03
2018-12-01T17:30:26.066Z,6.02
2018-12-01T17:32:55.044Z,6.03
2018-12-01T17:35:24.916Z,6.03
2018-12-01T17:37:57.468Z,6.03
2018-12-01T17:40:36.581Z,6.02
2018-12-01T17:43:06.824Z,6.00
2018-12-01T17:45:35.202Z,5.98
2018-12-01T17:48:03.981Z,5.95
2018-12-01T17:50:32.453Z,5.93
2018-12-01T17:53:00.825Z,5.89
2018-12-01T17:55:30.244Z,5.87
2018-12-01T17:57:58.717Z,5.82
2018-12-01T18:00:28.338Z,5.80
2018-12-01T18:02:59.371Z,5.77
2018-12-01T18:05:34.512Z,5.74
2018-12-01T18:08:03.284Z,5.71
2018-12-01T18:10:31.681Z,5.69
2018-12-01T18:13:00.053Z,5.67
2018-12-01T18:15:28.469Z,5.66
2018-12-01T18:17:56.847Z,5.68
2018-12-01T18:20:25.446Z,5.68
2018-12-01T18:22:57.243Z,5.70
2018-12-01T18:25:26.160Z,5.73
2018-12-01T18:27:56.067Z,5.75
2018-12-01T18:30:28.965Z,5.77
2018-12-01T18:32:59.157Z,5.80
2018-12-01T18:35:27.552Z,5.82
2018-12-01T18:37:55.937Z,5.84
2018-12-01T18:40:24.332Z,5.85
2018-12-01T18:42:52.802Z,5.88
2018-12-01T18:45:22.348Z,5.89
2018-12-01T18:47:50.741Z,5.89
2018-12-01T18:50:19.880Z,5.91
2018-12-01T18:52:59.480Z,5.92
2018-12-01T18:55:29.260Z,5.94
2018-12-01T18:57:57.715Z,5.94
2018-12-01T19:00:32.139Z,5.98
2018-12-01T19:03:00.517Z,5.98
2018-12-01T19:05:29.045Z,5.97
2018-12-01T19:07:57.414Z,5.97
2018-12-01T19:10:25.896Z,5.99
2018-12-01T19:12:54.293Z,5.99
2018-12-01T19:15:22.727Z,6.00
2018-12-01T19:17:51.116Z,6.01
2018-12-01T19:20:19.493Z,6.01
2018-12-01T19:22:49.149Z,6.03
2018-12-01T19:25:20.677Z,6.03
2018-12-01T19:27:49.664Z,6.02
2018-12-01T19:30:19.049Z,6.02
2018-12-01T19:32:52.874Z,6.01
2018-12-01T19:35:21.328Z,6.01
2018-12-01T19:37:50.865Z,6.00
2018-12-01T19:40:28.554Z,5.99
2018-12-01T19:42:54.004Z,6.00
2018-12-01T19:45:22.378Z,6.00
2018-12-01T19:47:50.772Z,5.98
2018-12-01T19:50:24.204Z,5.99
2018-12-01T19:52:52.609Z,5.98
2018-12-01T19:55:22.751Z,5.96
2018-12-01T19:57:51.877Z,5.95
2018-12-01T20:00:21.488Z,5.95
2018-12-01T20:02:50.205Z,5.93
2018-12-01T20:05:19.397Z,5.91
2018-12-01T20:07:48.422Z,5.89
2018-12-01T20:10:19.305Z,5.89
2018-12-01T20:13:53.845Z,5.87
2018-12-01T20:16:26.440Z,5.83
2018-12-01T20:18:55.040Z,5.81
2018-12-01T20:21:23.816Z,5.79
2018-12-01T20:23:52.320Z,5.79
2018-12-01T20:26:20.862Z,5.79
2018-12-01T20:28:49.388Z,5.79
2018-12-01T20:31:18.698Z,5.70
2018-12-01T20:33:47.145Z,5.83
2018-12-01T20:36:20.424Z,5.79
2018-12-01T20:38:58.464Z,5.77
2018-12-01T20:41:26.928Z,5.73
2018-12-01T20:43:55.559Z,5.71
2018-12-01T20:46:23.997Z,5.71
2018-12-01T20:48:52.781Z,5.70
2018-12-01T20:51:21.153Z,5.69
2018-12-01T20:53:50.081Z,5.69
2018-12-01T20:56:20.677Z,5.67
2018-12-01T20:58:49.093Z,5.68
2018-12-01T21:01:17.548Z,5.68
2018-12-01T21:03:45.958Z,5.67
2018-12-01T21:06:14.393Z,5.66
2018-12-01T21:08:42.783Z,5.66
2018-12-01T21:11:13.040Z,5.66
2018-12-01T21:13:41.537Z,5.66
2018-12-01T21:16:09.918Z,5.65
2018-12-01T21:18:38.351Z,5.65
2018-12-01T21:21:06.838Z,5.62
2018-12-01T21:23:35.218Z,5.62
2018-12-01T21:26:03.624Z,5.59
2018-12-01T21:28:32.013Z,5.57
2018-12-01T21:31:00.441Z,5.54
2018-12-01T21:33:31.488Z,5.50
2018-12-01T21:35:59.911Z,5.47
2018-12-01T21:38:28.280Z,5.46
2018-12-01T21:40:56.673Z,5.43
2018-12-01T21:43:25.121Z,5.38
2018-12-01T21:45:53.520Z,5.34
2018-12-01T21:48:21.982Z,5.31
2018-12-01T21:50:50.455Z,5.28
2018-12-01T21:53:23.288Z,5.28
2018-12-01T21:55:51.779Z,5.29
2018-12-01T21:58:20.229Z,5.29
2018-12-01T22:00:52.280Z,5.33
2018-12-01T22:03:21.105Z,5.35
2018-12-01T22:05:53.867Z,5.39
2018-12-01T22:08:22.235Z,5.42
2018-12-01T22:10:53.298Z,5.45
2018-12-01T22:13:22.185Z,5.47
2018-12-01T22:15:50.208Z,5.49
2018-12-01T22:18:18.820Z,5.50
2018-12-01T22:20:47.220Z,5.50
2018-12-01T22:23:15.686Z,5.50
2018-12-01T22:25:44.088Z,5.50
2018-12-01T22:28:13.461Z,5.51
2018-12-01T22:30:43.097Z,5.50
2018-12-01T22:33:15.141Z,5.50
2018-12-01T22:35:45.204Z,5.49
2018-12-01T22:38:13.752Z,5.49
2018-12-01T22:40:42.945Z,5.48
2018-12-01T22:43:11.349Z,5.48
2018-12-01T22:45:39.797Z,5.46
2018-12-01T22:48:09.858Z,5.46
2018-12-01T22:50:39.320Z,5.45
2018-12-01T22:53:07.732Z,5.43
2018-12-01T22:55:36.113Z,5.40
2018-12-01T22:58:07.663Z,5.40
2018-12-01T23:00:48.372Z,5.38
2018-12-01T23:03:16.809Z,5.38
2018-12-01T23:05:45.273Z,5.37
2018-12-01T23:08:14.890Z,5.37
2018-12-01T23:10:43.270Z,5.37
2018-12-01T23:13:11.670Z,5.38
2018-12-01T23:15:40.128Z,5.37
2018-12-01T23:18:10.064Z,5.39
2018-12-01T23:20:39.242Z,5.39
2018-12-01T23:23:08.049Z,5.40
2018-12-01T23:25:36.428Z,5.40
2018-12-01T23:28:05.024Z,5.43
2018-12-01T23:30:33.424Z,5.42
2018-12-01T23:33:05.270Z,5.41
2018-12-01T23:35:33.641Z,5.43
2018-12-01T23:38:02.058Z,5.43
2018-12-01T23:40:30.473Z,5.45
2018-12-01T23:42:58.859Z,5.45
2018-12-01T23:45:27.259Z,5.44
2018-12-01T23:47:55.717Z,5.42
2018-12-01T23:50:25.249Z,5.41
2018-12-01T23:52:55.772Z,5.40
2018-12-01T23:55:24.253Z,5.39
2018-12-01T23:57:52.712Z,5.37
